Time;durP1;ratioP1;P1;durP2;ratioP2;P2;SDS_P1;SDS_P2;PMS_P1;PMS_P2;Temp;Humidity;BMP_temperature;BMP_pressure;BME280_temperature;BME280_humidity;BME280_pressure;Samples;Min_cycle;Max_cycle;Signal;HPM_P1;HPM_P2
2021/11/08 00:01:09;;;;;;;8.65;5.95;;;;;;;5.81;100.00;97033.16;4995682;28;20375;-63
2021/11/08 00:03:37;;;;;;;11.20;5.45;;;;;;;6.01;100.00;97037.88;4999607;28;20049;-64
2021/11/08 00:06:05;;;;;;;8.80;5.55;;;;;;;6.11;100.00;97042.16;4998058;28;20482;-62
2021/11/08 00:08:32;;;;;;;10.43;5.07;;;;;;;6.18;100.00;97049.78;5001373;28;20280;-64
2021/11/08 00:10:58;;;;;;;10.63;5.45;;;;;;;6.18;100.00;97047.06;4999617;28;20033;-64
2021/11/08 00:13:24;;;;;;;7.95;5.45;;;;;;;6.21;100.00;97046.41;4980628;28;20604;-64
2021/11/08 00:16:06;;;;;;;11.13;5.28;;;;;;;6.12;100.00;97049.16;4981190;28;20050;-64
2021/11/08 00:21:31;;;;;;;11.65;6.10;;;;;;;5.89;100.00;97035.81;4935649;28;20070;-64
2021/11/08 00:23:57;;;;;;;9.52;6.53;;;;;;;6.19;100.00;97045.94;4980945;28;20073;-64
2021/11/08 00:26:22;;;;;;;11.68;6.20;;;;;;;6.33;100.00;97041.03;4974574;28;20066;-62
2021/11/08 00:28:49;;;;;;;11.45;6.38;;;;;;;6.31;100.00;97043.28;4982193;28;20042;-62
2021/11/08 00:31:15;;;;;;;9.43;5.75;;;;;;;6.17;100.00;97045.47;4976232;28;20061;-64
2021/11/08 00:33:40;;;;;;;9.73;6.38;;;;;;;6.33;100.00;97054.63;4980964;28;20061;-64
2021/11/08 00:36:07;;;;;;;10.43;5.40;;;;;;;6.17;100.00;97038.09;4975848;28;20050;-61
2021/11/08 00:38:34;;;;;;;10.07;6.03;;;;;;;6.19;100.00;97035.03;4980640;28;20054;-63
2021/11/08 00:41:01;;;;;;;10.48;6.03;;;;;;;6.27;100.00;97031.50;4979018;28;20100;-62
2021/11/08 00:43:26;;;;;;;10.98;5.78;;;;;;;6.23;100.00;97033.25;4975674;28;20077;-63
2021/11/08 00:45:52;;;;;;;10.60;6.00;;;;;;;6.26;100.00;97041.56;4980849;28;20081;-64
2021/11/08 00:48:21;;;;;;;13.48;5.88;;;;;;;6.18;100.00;97044.34;4975958;28;20096;-62
2021/11/08 00:50:49;;;;;;;9.25;5.97;;;;;;;6.18;100.00;97042.41;4979749;28;20038;-63
2021/11/08 00:53:16;;;;;;;10.38;6.47;;;;;;;6.21;100.00;97041.78;4975402;28;20081;-62
2021/11/08 00:55:42;;;;;;;13.38;7.00;;;;;;;6.03;100.00;97041.06;4986003;28;20052;-64
2021/11/08 00:58:14;;;;;;;10.60;6.68;;;;;;;6.09;100.00;97045.19;4975578;28;20455;-61
2021/11/08 01:00:40;;;;;;;13.70;7.15;;;;;;;6.21;100.00;97046.41;4980525;28;20054;-65
2021/11/08 01:03:07;;;;;;;11.55;6.30;;;;;;;6.16;100.00;97041.13;4978520;28;20030;-62
2021/11/08 01:05:33;;;;;;;10.98;7.57;;;;;;;6.07;100.00;97043.94;4999943;28;20042;-65
2021/11/08 01:08:00;;;;;;;9.68;6.88;;;;;;;6.13;100.00;97040.69;4990332;28;20089;-64
2021/11/08 01:10:25;;;;;;;11.57;7.35;;;;;;;6.05;100.00;97044.25;4977994;28;20050;-64
2021/11/08 01:12:51;;;;;;;12.63;7.07;;;;;;;6.00;100.00;97040.94;4990022;28;20042;-64
2021/11/08 01:15:18;;;;;;;12.45;7.35;;;;;;;6.03;100.00;97043.78;4987149;28;20066;-64
2021/11/08 01:17:45;;;;;;;12.10;7.60;;;;;;;6.08;100.00;97040.84;4976764;28;20070;-62
2021/11/08 01:20:11;;;;;;;13.75;9.10;;;;;;;5.99;100.00;97045.56;4980322;28;20126;-65
2021/11/08 01:22:38;;;;;;;13.68;8.38;;;;;;;5.89;100.00;97051.34;4974202;28;20050;-65
2021/11/08 01:25:08;;;;;;;15.35;7.85;;;;;;;5.98;100.00;97054.03;4977018;28;20046;-62
2021/11/08 01:27:42;;;;;;;9.33;6.23;;;;;;;6.11;100.00;97055.75;4987678;28;20050;-64
2021/11/08 01:30:17;;;;;;;12.02;7.72;;;;;;;6.18;100.00;97047.06;4985316;28;20045;-64
2021/11/08 01:32:53;;;;;;;11.43;6.82;;;;;;;6.06;100.00;97043.13;4985731;28;20100;-63
2021/11/08 01:35:28;;;;;;;11.25;7.00;;;;;;;6.13;100.00;97048.03;4980896;28;20842;-63
2021/11/08 01:38:02;;;;;;;12.55;7.25;;;;;;;6.18;100.00;97053.31;4982886;28;20080;-64
2021/11/08 01:40:29;;;;;;;11.50;6.13;;;;;;;6.22;100.00;97051.50;4972796;28;20504;-63
2021/11/08 01:42:54;;;;;;;14.80;7.38;;;;;;;6.21;100.00;97049.94;4988278;28;20034;-63
2021/11/08 01:45:20;;;;;;;15.55;7.32;;;;;;;6.07;100.00;97047.44;4981602;28;20049;-62
2021/11/08 01:47:46;;;;;;;13.70;7.78;;;;;;;5.98;100.00;97045.88;4992291;28;20057;-63
2021/11/08 01:50:11;;;;;;;10.88;6.82;;;;;;;6.05;100.00;97038.81;4989799;28;20057;-62
2021/11/08 01:52:37;;;;;;;11.18;7.28;;;;;;;5.94;100.00;97040.28;4998491;28;20042;-65
2021/11/08 01:55:04;;;;;;;12.52;6.88;;;;;;;5.88;100.00;97050.53;4993027;28;20053;-63
2021/11/08 01:57:30;;;;;;;11.57;7.05;;;;;;;5.80;100.00;97048.66;4986762;28;20043;-63
2021/11/08 01:59:56;;;;;;;12.25;6.78;;;;;;;5.67;100.00;97044.22;4987439;28;20050;-62
2021/11/08 02:02:22;;;;;;;12.75;8.15;;;;;;;5.59;100.00;97051.31;4983416;28;20804;-65
2021/11/08 02:04:47;;;;;;;11.82;7.35;;;;;;;5.66;100.00;97048.09;4988623;28;20072;-63
2021/11/08 02:07:13;;;;;;;12.75;7.68;;;;;;;5.83;100.00;97044.50;4990577;28;20070;-63
2021/11/08 02:09:39;;;;;;;14.48;7.05;;;;;;;5.92;100.00;97032.47;4993831;28;20050;-64
2021/11/08 02:12:07;;;;;;;13.85;8.00;;;;;;;5.88;100.00;97045.09;4989422;28;20042;-62
2021/11/08 02:14:33;;;;;;;12.00;7.75;;;;;;;5.68;100.00;97040.41;4988128;28;20043;-64
2021/11/08 02:16:58;;;;;;;16.13;8.68;;;;;;;5.63;100.00;97046.81;4990099;28;20097;-63
2021/11/08 02:19:24;;;;;;;14.10;7.82;;;;;;;5.61;100.00;97040.91;4975319;28;20042;-63
2021/11/08 02:21:51;;;;;;;13.85;8.52;;;;;;;5.61;100.00;97030.03;4991189;28;20060;-63
2021/11/08 02:24:18;;;;;;;13.70;8.98;;;;;;;5.62;100.00;97037.06;4979896;28;20076;-63
2021/11/08 02:26:44;;;;;;;12.82;8.32;;;;;;;5.62;100.00;97037.06;4987066;28;20440;-64
2021/11/08 02:29:11;;;;;;;17.13;9.30;;;;;;;5.58;100.00;97049.69;4984606;28;20038;-63
2021/11/08 02:31:36;;;;;;;16.38;8.20;;;;;;;5.61;100.00;97051.78;4994354;28;20054;-63
2021/11/08 02:34:02;;;;;;;13.38;8.57;;;;;;;5.65;100.00;97052.72;4992412;28;20048;-63
2021/11/08 02:36:29;;;;;;;14.32;8.20;;;;;;;5.69;100.00;97042.81;4986326;28;20050;-63
2021/11/08 02:38:57;;;;;;;11.68;8.07;;;;;;;5.67;100.00;97049.66;4985014;28;20053;-63
2021/11/08 02:41:23;;;;;;;14.50;8.07;;;;;;;5.67;100.00;97031.47;4991656;28;20135;-63
2021/11/08 02:43:50;;;;;;;15.52;8.65;;;;;;;5.64;100.00;97034.03;4992253;28;20038;-63
2021/11/08 02:46:17;;;;;;;12.68;8.63;;;;;;;5.57;100.00;97028.31;4989735;28;20040;-63
2021/11/08 02:48:46;;;;;;;14.88;8.60;;;;;;;5.61;100.00;97029.25;4989781;28;20055;-64
2021/11/08 02:51:24;;;;;;;14.52;8.13;;;;;;;5.57;100.00;97018.22;4992583;28;20042;-63
2021/11/08 02:53:55;;;;;;;14.35;9.23;;;;;;;5.50;100.00;97031.53;4991558;28;20192;-63
2021/11/08 02:56:21;;;;;;;16.02;9.43;;;;;;;5.38;100.00;97037.63;4987035;28;20051;-63
2021/11/08 02:58:47;;;;;;;23.25;8.88;;;;;;;5.30;100.00;97043.88;5003376;28;20050;-62
2021/11/08 03:01:17;;;;;;;18.95;9.38;;;;;;;5.32;100.00;97037.00;4984395;28;20046;-63
2021/11/08 03:03:46;;;;;;;13.82;9.07;;;;;;;5.44;100.00;97039.06;4985941;28;20053;-62
2021/11/08 03:08:47;;;;;;;18.08;10.25;;;;;;;5.44;100.00;97047.22;4985242;28;20107;-63
2021/11/08 03:11:13;;;;;;;18.00;10.60;;;;;;;5.59;100.00;97040.44;4985399;28;20042;-62
2021/11/08 03:13:45;;;;;;;17.05;10.07;;;;;;;5.62;100.00;97034.34;4985059;28;20541;-62
2021/11/08 03:16:58;;;;;;;14.18;9.10;;;;;;;5.68;100.00;97037.69;4984131;28;20573;-61
2021/11/08 03:18:58;;;;;;;14.30;8.82;;;;;;;5.74;100.00;97039.91;4974173;28;20046;-62
2021/11/08 03:21:25;;;;;;;21.70;10.65;;;;;;;5.59;100.00;97042.34;4983555;28;20280;-62
2021/11/08 03:23:53;;;;;;;20.85;11.73;;;;;;;5.29;100.00;97045.00;4985713;28;20038;-61
2021/11/08 03:29:00;;;;;;;26.98;14.50;;;;;;;4.94;100.00;97042.34;4985979;28;20132;-62
2021/11/08 03:31:28;;;;;;;30.38;16.17;;;;;;;4.85;100.00;97047.00;4981836;28;20046;-60
2021/11/08 03:33:54;;;;;;;38.90;17.10;;;;;;;4.75;100.00;97042.69;4989183;28;20081;-62
2021/11/08 03:36:20;;;;;;;33.70;17.42;;;;;;;4.73;100.00;97048.44;4976817;28;20068;-61
2021/11/08 03:38:45;;;;;;;38.20;17.27;;;;;;;4.76;100.00;97052.44;4982039;28;20034;-63
2021/11/08 03:41:11;;;;;;;37.95;17.17;;;;;;;4.80;100.00;97058.81;4976969;28;20061;-63
2021/11/08 03:43:38;;;;;;;33.78;15.63;;;;;;;4.78;100.00;97055.63;4989641;28;20038;-65
2021/11/08 03:46:04;;;;;;;43.90;17.40;;;;;;;4.72;100.00;97056.91;4981589;28;20045;-62
2021/11/08 03:48:30;;;;;;;34.72;16.98;;;;;;;4.68;100.00;97058.66;4985338;28;20050;-62
2021/11/08 03:50:55;;;;;;;29.77;15.35;;;;;;;4.76;100.00;97057.84;4988064;28;20042;-63
2021/11/08 03:53:21;;;;;;;30.90;14.07;;;;;;;4.77;100.00;97049.41;4985132;28;20080;-62
2021/11/08 03:55:47;;;;;;;26.42;13.23;;;;;;;4.73;100.00;97045.72;4988971;28;20137;-61
2021/11/08 03:58:12;;;;;;;29.40;14.13;;;;;;;4.70;100.00;97054.50;4983565;28;20061;-62
2021/11/08 04:00:40;;;;;;;28.60;13.55;;;;;;;4.64;100.00;97063.13;4985323;28;20050;-62
2021/11/08 04:03:07;;;;;;;29.70;13.43;;;;;;;4.63;100.00;97075.06;4983109;28;20125;-61
2021/11/08 04:05:35;;;;;;;30.42;13.32;;;;;;;4.65;100.00;97067.44;4982177;28;20038;-63
2021/11/08 04:08:04;;;;;;;27.88;13.27;;;;;;;4.76;100.00;97074.13;4986362;28;20038;-60
2021/11/08 04:10:31;;;;;;;28.83;12.70;;;;;;;4.67;100.00;97073.34;4998433;28;20046;-67
2021/11/08 04:13:03;;;;;;;27.70;12.57;;;;;;;4.59;100.00;97075.72;5010126;28;20038;-63
2021/11/08 04:15:37;;;;;;;26.42;13.52;;;;;;;4.53;100.00;97068.84;4995550;28;20491;-63
2021/11/08 04:18:14;;;;;;;27.85;12.98;;;;;;;4.53;100.00;97073.47;4995883;28;20042;-62
2021/11/08 04:20:41;;;;;;;30.25;12.27;;;;;;;4.53;100.00;97068.84;4984076;28;20050;-62
2021/11/08 04:23:08;;;;;;;27.30;12.50;;;;;;;4.50;100.00;97074.13;4980575;28;20389;-62
2021/11/08 04:25:34;;;;;;;25.58;12.27;;;;;;;4.50;100.00;97066.78;4984539;28;20042;-63
2021/11/08 04:28:00;;;;;;;28.92;13.15;;;;;;;4.53;100.00;97068.84;4980737;28;20394;-63
2021/11/08 04:30:28;;;;;;;23.88;12.25;;;;;;;4.60;100.00;97068.38;4982529;28;20045;-63
2021/11/08 04:35:30;;;;;;;25.83;12.35;;;;;;;4.95;100.00;97066.47;4992385;28;20661;-61
2021/11/08 04:40:30;;;;;;;23.73;11.77;;;;;;;5.23;100.00;97068.81;4982226;28;20133;-62
2021/11/08 04:43:06;;;;;;;20.05;11.25;;;;;;;5.34;100.00;97061.91;4992573;28;20045;-63
2021/11/08 04:51:14;;;;;;;21.02;10.35;;;;;;;4.94;100.00;97064.88;4988933;28;20042;-63
2021/11/08 05:31:55;;;;;;;27.60;13.27;;;;;;;4.68;100.00;97066.78;4995155;28;20038;-64
2021/11/08 05:34:20;;;;;;;25.58;13.27;;;;;;;4.61;100.00;97064.56;4999188;28;20045;-64
2021/11/08 05:36:47;;;;;;;26.75;14.10;;;;;;;4.66;100.00;97072.53;5003752;28;20052;-63
2021/11/08 05:39:13;;;;;;;28.25;14.00;;;;;;;4.67;100.00;97071.41;4991392;28;20088;-63
2021/11/08 05:41:42;;;;;;;27.95;13.45;;;;;;;4.68;100.00;97073.03;4991826;28;20537;-64
2021/11/08 05:44:08;;;;;;;27.33;13.73;;;;;;;4.60;100.00;97069.19;4980643;28;20042;-61
2021/11/08 05:46:35;;;;;;;24.80;13.23;;;;;;;4.59;100.00;97078.44;4992058;28;20064;-63
2021/11/08 05:49:01;;;;;;;23.17;13.10;;;;;;;4.64;100.00;97082.13;4991698;28;20133;-64
2021/11/08 05:51:28;;;;;;;25.02;12.95;;;;;;;4.64;100.00;97079.41;4995606;28;20507;-64
2021/11/08 05:53:54;;;;;;;23.70;12.35;;;;;;;4.63;100.00;97084.03;4996338;28;20049;-63
2021/11/08 05:56:29;;;;;;;24.35;12.48;;;;;;;4.63;100.00;97094.88;4993508;28;20128;-62
2021/11/08 06:51:05;;;;;;;15.73;9.38;;;;;;;4.96;100.00;97141.34;4986714;28;20061;-63
2021/11/08 06:53:32;;;;;;;22.52;12.95;;;;;;;4.92;100.00;97143.09;4996863;28;20046;-61
2021/11/08 06:55:58;;;;;;;20.88;11.77;;;;;;;4.92;100.00;97142.31;4996444;28;20050;-60
2021/11/08 06:58:26;;;;;;;16.85;9.50;;;;;;;4.90;100.00;97148.06;4986789;28;20904;-60
2021/11/08 07:00:52;;;;;;;15.68;9.57;;;;;;;4.96;100.00;97144.06;4982947;28;20046;-60
2021/11/08 07:03:18;;;;;;;23.05;15.70;;;;;;;4.99;100.00;97148.06;4973563;28;20479;-59
2021/11/08 07:05:43;;;;;;;16.65;10.73;;;;;;;5.04;100.00;97147.09;4982871;28;20048;-58
2021/11/08 07:08:10;;;;;;;20.63;11.93;;;;;;;4.98;100.00;97149.19;4979132;28;20525;-59
2021/11/08 07:10:37;;;;;;;18.63;11.15;;;;;;;5.01;100.00;97153.97;4975978;28;20043;-59
2021/11/08 07:13:03;;;;;;;21.83;11.57;;;;;;;5.03;100.00;97150.94;4970135;28;20663;-59
2021/11/08 07:15:28;;;;;;;20.50;11.18;;;;;;;5.12;100.00;97155.25;4965585;28;20153;-60
2021/11/08 07:17:54;;;;;;;21.63;11.38;;;;;;;5.26;100.00;97151.59;4970562;28;20038;-60
2021/11/08 07:20:21;;;;;;;18.27;11.05;;;;;;;5.23;100.00;97150.28;4973356;28;20117;-58
2021/11/08 07:22:48;;;;;;;31.58;18.30;;;;;;;5.12;100.00;97149.03;4978018;28;20066;-58
2021/11/08 07:25:14;;;;;;;27.42;15.70;;;;;;;5.14;100.00;97150.28;4975593;28;20046;-60
2021/11/08 07:27:39;;;;;;;19.80;11.30;;;;;;;5.14;100.00;97152.22;4967128;28;20070;-57
2021/11/08 07:30:06;;;;;;;22.45;11.65;;;;;;;5.13;100.00;97150.59;4957956;28;20479;-61
2021/11/08 07:32:32;;;;;;;22.83;12.10;;;;;;;5.11;100.00;97150.94;4961494;28;20126;-58
2021/11/08 07:34:58;;;;;;;23.40;13.43;;;;;;;5.03;100.00;97150.94;4962074;28;20138;-54
2021/11/08 07:37:24;;;;;;;26.08;14.63;;;;;;;5.17;100.00;97148.88;4956798;28;20467;-60
2021/11/08 07:39:51;;;;;;;23.95;12.55;;;;;;;5.16;100.00;97156.19;4962192;28;20050;-60
2021/11/08 07:42:17;;;;;;;26.30;13.93;;;;;;;5.26;100.00;97157.81;4956365;28;20039;-60
2021/11/08 07:44:43;;;;;;;22.35;12.23;;;;;;;5.47;100.00;97152.50;4961852;28;20053;-60
2021/11/08 07:47:09;;;;;;;26.20;11.55;;;;;;;5.63;100.00;97155.50;4955621;28;20130;-59
2021/11/08 07:49:35;;;;;;;26.83;14.40;;;;;;;5.70;100.00;97158.53;4959756;28;20047;-60
2021/11/08 07:52:01;;;;;;;25.73;12.20;;;;;;;5.74;100.00;97155.97;4962762;28;20396;-59
2021/11/08 07:54:31;;;;;;;21.45;11.07;;;;;;;5.90;100.00;97154.31;4957273;28;20074;-61
2021/11/08 07:56:58;;;;;;;23.48;11.95;;;;;;;5.94;100.00;97146.31;4962838;28;20073;-61
2021/11/08 07:59:23;;;;;;;19.90;10.48;;;;;;;6.34;100.00;97148.75;4956887;28;20621;-58
2021/11/08 08:01:49;;;;;;;21.17;10.50;;;;;;;6.46;100.00;97148.84;4961285;28;20141;-61
2021/11/08 08:04:16;;;;;;;17.30;10.00;;;;;;;6.69;100.00;97148.53;4957106;28;20054;-63
2021/11/08 08:06:43;;;;;;;14.38;8.68;;;;;;;6.70;100.00;97150.16;4962839;28;20035;-59
2021/11/08 08:09:08;;;;;;;15.85;8.73;;;;;;;6.68;100.00;97150.47;4961806;28;20061;-62
2021/11/08 08:11:34;;;;;;;15.23;7.43;;;;;;;6.47;100.00;97149.63;4973843;28;20047;-59
2021/11/08 08:14:00;;;;;;;14.40;5.82;;;;;;;6.72;100.00;97147.06;5007712;28;20105;-60
2021/11/08 08:16:26;;;;;;;10.93;6.03;;;;;;;7.10;100.00;97146.97;5011247;28;20115;-59
2021/11/08 08:18:51;;;;;;;10.38;5.38;;;;;;;7.56;100.00;97155.22;5006732;28;20437;-58
2021/11/08 08:21:18;;;;;;;9.13;5.63;;;;;;;7.65;100.00;97147.75;4994020;28;20401;-62
2021/11/08 08:23:44;;;;;;;11.40;5.30;;;;;;;7.04;100.00;97149.09;5000681;28;20434;-60
2021/11/08 08:26:11;;;;;;;17.25;5.93;;;;;;;6.88;100.00;97148.91;4977996;28;20038;-60
2021/11/08 08:28:37;;;;;;;10.75;6.65;;;;;;;6.88;100.00;97148.91;5000744;28;20037;-59
2021/11/08 08:31:02;;;;;;;13.43;5.97;;;;;;;6.64;100.00;97151.44;4999399;28;20084;-62
2021/11/08 08:33:28;;;;;;;15.63;7.43;;;;;;;6.91;100.00;97141.97;4997475;28;20069;-60
2021/11/08 08:35:54;;;;;;;11.38;4.82;;;;;;;6.59;100.00;97141.56;5001970;28;20045;-60
2021/11/08 08:38:22;;;;;;;6.88;4.20;;;;;;;6.21;100.00;97138.88;4992554;28;20054;-59
2021/11/08 08:40:50;;;;;;;9.45;4.85;;;;;;;6.44;100.00;97140.19;5009918;28;20045;-60
2021/11/08 08:43:17;;;;;;;13.30;4.70;;;;;;;6.67;100.00;97140.69;5000309;28;20053;-60
2021/11/08 08:45:43;;;;;;;10.73;5.20;;;;;;;6.40;100.00;97136.53;5005409;28;20132;-58
2021/11/08 08:48:11;;;;;;;10.48;5.10;;;;;;;6.61;100.00;97141.22;4995504;28;20129;-58
2021/11/08 08:50:39;;;;;;;12.07;5.05;;;;;;;6.26;100.00;97134.03;5001072;28;20068;-60
2021/11/08 08:53:05;;;;;;;10.48;4.88;;;;;;;6.02;100.00;97140.06;4989484;28;20046;-63
2021/11/08 08:55:31;;;;;;;8.45;4.07;;;;;;;6.53;100.00;97142.06;4979440;28;20034;-61
2021/11/08 08:57:57;;;;;;;7.63;4.18;;;;;;;6.51;100.00;97132.31;4980242;28;20077;-61
2021/11/08 09:00:24;;;;;;;13.38;4.32;;;;;;;6.47;100.00;97134.09;4971101;28;20042;-60
2021/11/08 09:02:52;;;;;;;9.65;3.88;;;;;;;6.37;100.00;97131.75;4979552;28;20137;-61
2021/11/08 09:05:18;;;;;;;9.73;3.80;;;;;;;6.53;100.00;97131.97;4974152;28;20143;-61
2021/11/08 09:07:44;;;;;;;11.23;3.55;;;;;;;6.82;100.00;97133.06;4972085;28;20102;-61
2021/11/08 09:10:10;;;;;;;7.18;3.40;;;;;;;7.07;98.75;97126.63;4975083;28;20648;-60
2021/11/08 09:12:35;;;;;;;10.15;4.00;;;;;;;7.19;96.57;97125.91;4979813;28;20121;-62
2021/11/08 09:15:01;;;;;;;10.70;3.38;;;;;;;7.00;96.42;97133.75;4977577;28;20153;-61
2021/11/08 09:17:27;;;;;;;13.25;4.45;;;;;;;7.59;96.58;97135.47;4975505;28;20132;-60
2021/11/08 09:19:53;;;;;;;9.05;3.70;;;;;;;7.28;95.59;97128.56;4980308;28;20042;-60
2021/11/08 09:22:19;;;;;;;11.95;4.30;;;;;;;7.31;97.04;97125.16;4971296;28;20053;-58
2021/11/08 09:24:44;;;;;;;11.77;3.75;;;;;;;7.35;93.41;97134.25;4980314;28;20046;-62
2021/11/08 09:27:10;;;;;;;12.15;4.03;;;;;;;7.09;96.03;97131.75;4975455;28;20132;-59
2021/11/08 09:29:36;;;;;;;10.23;4.47;;;;;;;7.11;96.41;97126.75;4979610;28;20081;-61
2021/11/08 09:32:03;;;;;;;13.15;4.20;;;;;;;7.53;96.24;97129.44;4972692;28;20038;-61
2021/11/08 09:34:29;;;;;;;12.85;4.70;;;;;;;7.43;95.00;97144.25;4975250;28;20050;-60
2021/11/08 09:36:58;;;;;;;13.35;4.68;;;;;;;7.24;96.26;97141.25;4977635;28;20042;-58
2021/11/08 09:39:27;;;;;;;12.85;4.70;;;;;;;7.65;96.10;97143.09;4975156;28;20484;-60
2021/11/08 09:42:02;;;;;;;14.70;5.25;;;;;;;7.17;96.29;97136.34;4979436;28;20132;-57
2021/11/08 09:44:28;;;;;;;14.65;4.47;;;;;;;7.27;96.90;97132.38;4969865;28;20124;-58
2021/11/08 09:46:56;;;;;;;10.63;4.80;;;;;;;7.12;96.57;97138.47;4975202;28;20042;-62
2021/11/08 09:49:23;;;;;;;15.63;4.05;;;;;;;6.68;94.55;97138.75;4970837;28;20686;-60
2021/11/08 09:51:50;;;;;;;14.65;3.95;;;;;;;6.89;95.43;97141.50;4972628;28;20046;-59
2021/11/08 09:54:18;;;;;;;19.05;5.18;;;;;;;7.61;92.78;97141.38;4964057;28;20049;-61
2021/11/08 09:56:46;;;;;;;13.10;4.30;;;;;;;7.27;89.60;97141.38;4967878;28;20181;-61
2021/11/08 09:59:14;;;;;;;19.55;4.30;;;;;;;7.18;91.82;97143.38;4969836;28;20101;-62
2021/11/08 10:01:42;;;;;;;14.25;5.18;;;;;;;7.24;91.15;97144.78;4983943;28;20185;-60
2021/11/08 10:04:08;;;;;;;15.80;4.63;;;;;;;6.80;92.08;97144.28;4967253;28;20047;-57
2021/11/08 10:06:37;;;;;;;14.25;4.28;;;;;;;6.85;93.90;97135.16;4978440;28;20049;-62
2021/11/08 10:09:07;;;;;;;15.65;4.30;;;;;;;7.12;94.33;97136.53;4973463;28;20046;-63
2021/11/08 10:11:35;;;;;;;12.57;3.75;;;;;;;7.37;90.75;97139.38;4975831;28;20139;-62
2021/11/08 10:14:01;;;;;;;11.85;4.00;;;;;;;7.53;89.40;97137.63;4979135;28;20038;-59
2021/11/08 10:16:30;;;;;;;9.38;3.83;;;;;;;7.97;90.65;97135.19;4970419;28;20054;-61
2021/11/08 10:18:59;;;;;;;9.05;3.47;;;;;;;8.33;86.04;97141.03;4971765;28;20050;-62
2021/11/08 10:21:39;;;;;;;11.63;3.92;;;;;;;7.64;85.90;97136.03;4970989;28;20103;-61
2021/11/08 10:24:09;;;;;;;12.80;4.60;;;;;;;7.33;90.45;97130.25;4956340;28;20069;-62
2021/11/08 10:26:36;;;;;;;;;;;;;;;7.14;90.61;97128.81;4973021;28;20403;-60
2021/11/08 10:29:05;;;;;;;12.45;4.60;;;;;;;7.09;89.05;97129.03;4982074;28;20342;-62
2021/11/08 10:31:34;;;;;;;20.33;4.55;;;;;;;6.98;89.84;97125.13;4988138;28;20128;-60
2021/11/08 10:34:08;;;;;;;18.40;5.70;;;;;;;7.11;88.68;97129.47;4982409;28;20041;-60
2021/11/08 10:36:34;;;;;;;10.10;4.38;;;;;;;7.12;89.23;97128.34;4983182;28;20057;-60
2021/11/08 10:39:02;;;;;;;12.77;4.38;;;;;;;7.20;89.44;97123.97;4983727;28;20049;-60
2021/11/08 10:41:31;;;;;;;12.25;4.30;;;;;;;6.95;90.61;97128.50;4978813;28;20146;-61
2021/11/08 10:44:09;;;;;;;12.88;4.57;;;;;;;7.03;90.48;97119.47;4984431;28;20053;-61
2021/11/08 10:46:38;;;;;;;15.38;5.07;;;;;;;7.32;91.25;97128.69;4988615;28;20038;-61
2021/11/08 10:49:08;;;;;;;13.93;4.57;;;;;;;7.16;90.95;97118.38;4982714;28;20085;-61
2021/11/08 10:51:37;;;;;;;14.13;5.20;;;;;;;7.11;91.20;97128.69;4982571;28;20299;-61
2021/11/08 10:54:15;;;;;;;14.68;6.47;;;;;;;7.36;90.71;97132.31;4976600;28;20125;-61
2021/11/08 10:56:42;;;;;;;13.35;5.20;;;;;;;7.50;88.96;97126.59;4976618;28;20042;-61
2021/11/08 10:59:15;;;;;;;13.25;5.30;;;;;;;7.57;89.25;97124.91;4969058;28;20046;-60
2021/11/08 11:01:48;;;;;;;10.27;4.75;;;;;;;7.69;89.14;97123.31;4973741;28;20077;-59
2021/11/08 11:04:15;;;;;;;12.05;5.60;;;;;;;7.63;89.13;97125.47;4966881;28;20391;-60
2021/11/08 11:06:49;;;;;;;11.93;5.30;;;;;;;7.96;87.55;97122.72;4976443;28;20443;-59
2021/11/08 11:09:17;;;;;;;10.15;4.97;;;;;;;7.85;86.56;97116.91;4969711;28;20043;-60
2021/11/08 11:11:43;;;;;;;13.65;4.68;;;;;;;7.68;88.39;97122.53;4972602;28;20041;-58
2021/11/08 11:14:09;;;;;;;16.90;5.03;;;;;;;7.60;87.46;97118.00;4966387;28;20034;-59
2021/11/08 11:16:50;;;;;;;12.23;5.05;;;;;;;7.84;87.79;97112.56;4975065;28;20042;-59
2021/11/08 11:19:17;;;;;;;11.10;5.13;;;;;;;7.95;86.60;97110.19;4967204;28;20547;-61
2021/11/08 11:21:58;;;;;;;12.90;5.00;;;;;;;7.83;85.44;97107.44;4972651;28;20534;-60
2021/11/08 11:24:54;;;;;;;15.15;4.78;;;;;;;8.22;83.82;97110.69;4967186;28;21201;-60
2021/11/08 11:27:29;;;;;;;11.73;4.38;;;;;;;8.63;81.47;97106.13;4950385;28;20042;-60
2021/11/08 11:30:12;;;;;;;15.73;4.88;;;;;;;8.14;82.00;97100.66;4975888;28;20047;-56
2021/11/08 11:32:38;;;;;;;10.32;4.15;;;;;;;8.10;82.42;97114.19;4978717;28;20452;-60
2021/11/08 11:35:15;;;;;;;14.23;5.00;;;;;;;8.31;81.63;97113.28;4970684;28;20043;-61
2021/11/08 11:37:53;;;;;;;13.05;4.25;;;;;;;8.32;82.59;97102.03;4973470;28;20553;-59
2021/11/08 11:40:19;;;;;;;10.10;4.10;;;;;;;8.18;80.06;97110.56;4964854;28;20031;-61
2021/11/08 11:42:54;;;;;;;10.45;4.40;;;;;;;8.06;81.66;97112.50;4973989;28;20047;-61
2021/11/08 11:45:20;;;;;;;12.35;4.32;;;;;;;8.33;80.70;97116.47;4967288;28;20439;-64
2021/11/08 11:48:05;;;;;;;8.02;3.47;;;;;;;8.66;77.98;97107.38;4979106;28;20049;-57
2021/11/08 11:50:33;;;;;;;14.50;4.10;;;;;;;8.87;76.39;97113.47;4995599;28;20073;-58
2021/11/08 11:53:00;;;;;;;15.23;4.20;;;;;;;8.61;77.25;97109.22;4975493;28;20041;-58
2021/11/08 11:55:26;;;;;;;17.90;4.30;;;;;;;9.42;75.92;97108.41;4967595;28;20073;-60
2021/11/08 11:57:56;;;;;;;12.68;4.20;;;;;;;9.59;71.77;97106.50;4971845;28;20452;-58
2021/11/08 12:00:25;;;;;;;12.07;4.15;;;;;;;8.77;74.46;97103.84;4965487;28;20518;-58
2021/11/08 12:02:52;;;;;;;13.88;4.07;;;;;;;8.65;75.94;97108.53;4974188;28;20566;-58
2021/11/08 12:05:18;;;;;;;13.07;4.20;;;;;;;8.61;76.45;97109.22;4967645;28;20046;-59
2021/11/08 12:07:44;;;;;;;11.63;4.30;;;;;;;8.55;75.91;97107.88;4970688;28;20394;-60
2021/11/08 12:10:09;;;;;;;11.05;4.03;;;;;;;8.73;76.04;97102.13;4967240;28;20035;-59
2021/11/08 12:12:36;;;;;;;14.18;3.50;;;;;;;8.69;72.62;97106.69;4974569;28;20045;-59
2021/11/08 12:15:08;;;;;;;12.40;3.80;;;;;;;8.60;72.53;97106.81;4967482;28;20055;-60
2021/11/08 12:17:47;;;;;;;11.95;3.50;;;;;;;8.67;70.91;97107.03;4982434;28;20069;-57
2021/11/08 12:20:24;;;;;;;7.45;3.05;;;;;;;8.72;71.45;97093.16;4971963;28;20038;-57
2021/11/08 12:22:50;;;;;;;27.05;8.30;;;;;;;8.57;72.62;97102.03;4974056;28;20046;-59
2021/11/08 12:25:22;;;;;;;11.13;3.25;;;;;;;8.52;72.42;97099.56;4966437;28;20064;-59
2021/11/08 12:28:06;;;;;;;9.52;3.50;;;;;;;8.55;70.81;97096.13;4970358;28;20056;-56
2021/11/08 12:30:38;;;;;;;10.38;3.33;;;;;;;8.48;71.03;97095.91;4968222;28;20124;-60
2021/11/08 12:33:21;;;;;;;11.77;2.97;;;;;;;8.53;71.08;97092.94;4966339;28;20125;-60
2021/11/08 12:35:47;;;;;;;8.60;3.20;;;;;;;8.54;71.73;97086.34;4973411;28;20042;-58
2021/11/08 12:38:18;;;;;;;8.55;2.85;;;;;;;8.46;69.14;97093.50;4974189;28;20095;-59
2021/11/08 12:40:45;;;;;;;9.35;2.70;;;;;;;8.46;68.57;97088.06;4972756;28;20050;-60
2021/11/08 12:43:22;;;;;;;12.55;2.67;;;;;;;8.63;69.80;97083.50;4966080;28;20038;-60
2021/11/08 12:45:48;;;;;;;9.68;2.90;;;;;;;8.40;69.18;97083.94;4972853;28;20649;-59
2021/11/08 12:48:17;;;;;;;7.85;2.55;;;;;;;8.49;67.48;97081.13;4966905;28;20061;-58
2021/11/08 12:50:52;;;;;;;14.65;2.78;;;;;;;8.42;67.57;97081.69;4971925;28;20057;-57
2021/11/08 12:53:42;;;;;;;8.77;2.80;;;;;;;8.33;68.48;97075.53;4970883;28;20035;-56
2021/11/08 12:56:28;;;;;;;15.82;4.57;;;;;;;8.33;68.61;97081.00;4963880;28;20120;-56
2021/11/08 12:58:59;;;;;;;8.30;2.65;;;;;;;8.34;68.78;97075.19;4974718;28;20035;-59
2021/11/08 13:01:43;;;;;;;7.90;2.63;;;;;;;8.29;68.46;97078.16;4966325;28;20061;-58
2021/11/08 13:04:13;;;;;;;10.13;3.35;;;;;;;8.59;67.99;97077.94;4967185;28;20042;-60
2021/11/08 13:06:40;;;;;;;10.25;2.80;;;;;;;8.81;66.83;97073.91;4971218;28;20050;-60
2021/11/08 13:09:18;;;;;;;16.20;3.60;;;;;;;8.75;65.47;97075.25;4968975;28;20042;-59
2021/11/08 13:11:57;;;;;;;8.95;2.42;;;;;;;8.95;64.92;97068.06;4971120;28;20034;-58
2021/11/08 13:14:34;;;;;;;7.57;2.20;;;;;;;8.79;65.80;97068.00;4969526;28;20989;-60
2021/11/08 13:17:07;;;;;;;15.75;3.72;;;;;;;8.52;66.14;97072.25;4971390;28;20101;-58
2021/11/08 13:19:39;;;;;;;10.32;2.75;;;;;;;8.61;66.20;97076.44;4967287;28;20051;-57
2021/11/08 13:22:20;;;;;;;10.40;2.72;;;;;;;8.65;66.51;97067.56;4961837;28;20043;-61